地図

経路データ

SID SEASON NUMBER BASIN SUBBASIN NAME ISO_TIME NATURE LAT LON WMO_WIND WMO_PRES WMO_AGENCY TRACK_TYPE DIST2LAND LANDFALL IFLAG USA_AGENCY USA_ATCF_ID USA_LAT USA_LON USA_RECORD USA_STATUS USA_WIND USA_PRES USA_SSHS USA_R34_NE USA_R34_SE USA_R34_SW USA_R34_NW USA_R50_NE USA_R50_SE USA_R50_SW USA_R50_NW USA_R64_NE USA_R64_SE USA_R64_SW USA_R64_NW USA_POCI USA_ROCI USA_RMW USA_EYE TOKYO_LAT TOKYO_LON TOKYO_GRADE TOKYO_WIND TOKYO_PRES TOKYO_R50_DIR TOKYO_R50_LONG TOKYO_R50_SHORT TOKYO_R30_DIR TOKYO_R30_LONG TOKYO_R30_SHORT TOKYO_LAND CMA_LAT CMA_LON CMA_CAT CMA_WIND CMA_PRES HKO_LAT HKO_LON HKO_CAT HKO_WIND HKO_PRES NEWDELHI_LAT NEWDELHI_LON NEWDELHI_GRADE NEWDELHI_WIND NEWDELHI_PRES NEWDELHI_CI NEWDELHI_DP NEWDELHI_POCI REUNION_LAT REUNION_LON REUNION_TYPE REUNION_WIND REUNION_PRES REUNION_TNUM REUNION_CI REUNION_RMW REUNION_R34_NE REUNION_R34_SE REUNION_R34_SW REUNION_R34_NW REUNION_R50_NE REUNION_R50_SE REUNION_R50_SW REUNION_R50_NW REUNION_R64_NE REUNION_R64_SE REUNION_R64_SW REUNION_R64_NW BOM_LAT BOM_LON BOM_TYPE BOM_WIND BOM_PRES BOM_TNUM BOM_CI BOM_RMW BOM_R34_NE BOM_R34_SE BOM_R34_SW BOM_R34_NW BOM_R50_NE BOM_R50_SE BOM_R50_SW BOM_R50_NW BOM_R64_NE BOM_R64_SE BOM_R64_SW BOM_R64_NW BOM_ROCI BOM_POCI BOM_EYE BOM_POS_METHOD BOM_PRES_METHOD NADI_LAT NADI_LON NADI_CAT NADI_WIND NADI_PRES WELLINGTON_LAT WELLINGTON_LON WELLINGTON_WIND WELLINGTON_PRES DS824_LAT DS824_LON DS824_STAGE DS824_WIND DS824_PRES TD9636_LAT TD9636_LON TD9636_STAGE TD9636_WIND TD9636_PRES TD9635_LAT TD9635_LON TD9635_WIND TD9635_PRES TD9635_ROCI NEUMANN_LAT NEUMANN_LON NEUMANN_CLASS NEUMANN_WIND NEUMANN_PRES MLC_LAT MLC_LON MLC_CLASS MLC_WIND MLC_PRES USA_GUST BOM_GUST BOM_GUST_PER REUNION_GUST REUNION_GUST_PER USA_SEAHGT USA_SEARAD_NE USA_SEARAD_SE USA_SEARAD_SW USA_SEARAD_NW STORM_SPEED STORM_DIR
1988319N08090 1988 106 NI BB NOT_NAMED 1988-11-14 06:00:00 NR 7.50000 90.0000 main 613 613 O_________O___ jtwc_io IO031988 7.50000 90.0000 25 -1 7.50000 90.0000 1 25 8 344
1988319N08090 1988 106 NI BB NOT_NAMED 1988-11-14 09:00:00 NR 7.85930 89.8920 main 639 639 P_________P___ IO031988 7.85751 89.8925 25 -1 7.86109 89.8915 1 25 7 344
1988319N08090 1988 106 NI BB NOT_NAMED 1988-11-14 12:00:00 NR 8.20000 89.8000 main 663 663 O_________O___ jtwc_io IO031988 8.20000 89.8000 25 -1 8.20000 89.8000 1 25 7 347
1988319N08090 1988 106 NI BB NOT_NAMED 1988-11-14 15:00:00 NR 8.50799 89.7369 main 688 688 P_________P___ IO031988 8.51499 89.7350 25 -1 8.50098 89.7387 1 25 6 351
1988319N08090 1988 106 NI BB NOT_NAMED 1988-11-14 18:00:00 NR 8.78692 89.7028 main 705 705 O_________P___ jtwc_io IO031988 8.80000 89.7000 25 -1 8.77385 89.7056 1 25 5 356
1988319N08090 1988 106 NI BB NOT_NAMED 1988-11-14 21:00:00 NR 9.04614 89.6936 main 716 716 P_________P___ IO031988 9.05750 89.6925 25 -1 9.03479 89.6947 1 25 5 0
1988319N08090 1988 106 NI BB NOT_NAMED 1988-11-15 00:00:00 NR 9.30000 89.7000 main 734 734 O_________O___ jtwc_io IO031988 9.30000 89.7000 25 -1 9.30000 89.7000 1 25 5 0
1988319N08090 1988 106 NI BB NOT_NAMED 1988-11-15 03:00:00 NR 9.56390 89.6975 main 754 754 P_________P___ IO031988 9.53500 89.6925 25 -1 9.59281 89.7025 1 25 6 3
1988319N08090 1988 106 NI BB NOT_NAMED 1988-11-15 06:00:00 NR 9.84625 89.7100 main 767 767 O_________P___ jtwc_io IO031988 9.80000 89.7000 25 -1 9.89249 89.7200 1 25 6 5
1988319N08090 1988 106 NI BB NOT_NAMED 1988-11-15 09:00:00 NR 10.1692 89.7475 main 795 774 P_________P___ IO031988 10.1425 89.7425 25 -1 10.1959 89.7525 1 25 7 8
1988319N08090 1988 106 NI BB NOT_NAMED 1988-11-15 12:00:00 NR 10.5000 89.8000 main 774 742 O_________O___ jtwc_io IO031988 10.5000 89.8000 25 -1 10.5000 89.8000 1 25 6 10
1988319N08090 1988 106 NI BB NOT_NAMED 1988-11-15 15:00:00 NR 10.8017 89.8556 main 742 716 P_________P___ IO031988 10.8075 89.8425 25 -1 10.7960 89.8687 1 25 6 12
1988319N08090 1988 106 NI BB NOT_NAMED 1988-11-15 18:00:00 NR 11.0963 89.9249 main 716 684 O_________P___ jtwc_io IO031988 11.1000 89.9000 25 -1 11.0925 89.9499 1 25 6 15
1988319N08090 1988 106 NI BB NOT_NAMED 1988-11-15 21:00:00 NR 11.3927 90.0156 main 684 653 P_________P___ IO031988 11.3925 90.0000 25 -1 11.3928 90.0312 1 25 6 16
1988319N08090 1988 106 NI BB NOT_NAMED 1988-11-16 00:00:00 NR 11.7000 90.1000 main 653 621 O_________O___ jtwc_io IO031988 11.7000 90.1000 25 -1 11.7000 90.1000 1 25 7 11
1988319N08090 1988 106 NI BB NOT_NAMED 1988-11-16 03:00:00 NR 12.0298 90.1522 main 621 598 P_________P___ IO031988 12.0500 90.1650 25 -1 12.0097 90.1395 1 25 7 6
1988319N08090 1988 106 NI BB NOT_NAMED 1988-11-16 06:00:00 NR 12.3637 90.1826 main 590 567 O_________P___ jtwc_io IO031988 12.4000 90.2000 25 -1 12.3275 90.1651 1 25 7 4
1988319N08090 1988 106 NI BB NOT_NAMED 1988-11-16 09:00:00 NR 12.6745 90.1916 main 567 546 P_________P___ IO031988 12.6925 90.2001 25 -1 12.6566 90.1832 1 25 6 2
1988319N08090 1988 106 NI BB NOT_NAMED 1988-11-16 12:00:00 NR 13.0000 90.2000 main 546 519 O_________O___ jtwc_io IO031988 13.0000 90.2000 25 -1 13.0000 90.2000 1 25 7 3
1988319N08090 1988 106 NI BB NOT_NAMED 1988-11-16 15:00:00 NR 13.3745 90.2375 main 519 492 P_________P___ IO031988 13.3925 90.2499 25 -1 13.3566 90.2250 1 26 8 5
1988319N08090 1988 106 NI BB NOT_NAMED 1988-11-16 18:00:00 NR 13.7638 90.2750 main 486 469 O_________P___ jtwc_io IO031988 13.8000 90.3000 25 -1 13.7275 90.2500 1 27 8 4
1988319N08090 1988 106 NI BB NOT_NAMED 1988-11-16 21:00:00 NR 14.1298 90.2913 main 469 450 P_________P___ IO031988 14.1500 90.3075 27 -1 14.1097 90.2750 1 28 7 0
1988319N08090 1988 106 NI BB NOT_NAMED 1988-11-17 00:00:00 NR 14.5000 90.3000 main 450 435 O_________O___ jtwc_io IO031988 14.5000 90.3000 30 -1 14.5000 90.3000 1 30 8 2
1988319N08090 1988 106 NI BB NOT_NAMED 1988-11-17 03:00:00 NR 14.8926 90.3008 main 435 425 P_________P___ IO031988 14.8925 90.2925 30 -1 14.8928 90.3090 1 30 8 0
1988319N08090 1988 106 NI BB NOT_NAMED 1988-11-17 06:00:00 NR 15.2962 90.3102 main 425 418 O_________P___ jtwc_io IO031988 15.3000 90.3000 30 -1 15.2925 90.3204 1 30 8 3
1988319N08090 1988 106 NI BB NOT_NAMED 1988-11-17 09:00:00 NR 15.7017 90.3445 main 418 406 P_________P___ IO031988 15.7075 90.3425 30 -1 15.6959 90.3466 1 30 8 6
1988319N08090 1988 106 NI BB NOT_NAMED 1988-11-17 12:00:00 NR 16.1000 90.4000 main 406 406 O_________O___ jtwc_io IO031988 16.1000 90.4000 30 -1 16.1000 90.4000 1 30 8 6
1988319N08090 1988 106 NI BB NOT_NAMED 1988-11-17 15:00:00 NR 16.4629 90.4301 main 409 400 P_________P___ IO031988 16.4425 90.4277 30 -1 16.4833 90.4324 1 32 7 8
1988319N08090 1988 106 NI BB NOT_NAMED 1988-11-17 18:00:00 NR 16.8346 90.5010 main 404 384 O_________P___ jtwc_io IO031988 16.8000 90.5000 30 -1 16.8691 90.5020 1 35 8 15
1988319N08090 1988 106 NI BB NOT_NAMED 1988-11-17 21:00:00 NR 17.2489 90.6466 main 384 329 P_________P___ IO031988 17.2274 90.6477 35 0 17.2705 90.6455 1 37 10 24
1988319N08090 1988 106 NI BB NOT_NAMED 1988-11-18 00:00:00 NR 17.7000 90.9000 main 329 282 O_________O___ jtwc_io IO031988 17.7000 90.9000 40 0 17.7000 90.9000 2 40 11 32
1988319N08090 1988 106 NI BB NOT_NAMED 1988-11-18 03:00:00 NR 18.1657 91.2389 main 277 209 P_________P___ IO031988 18.1923 91.2328 45 0 18.1390 91.2450 2 43 12 39
1988319N08090 1988 106 NI BB NOT_NAMED 1988-11-18 06:00:00 NR 18.6553 91.7050 main 200 128 O_________P___ jtwc_io IO031988 18.7000 91.7000 50 0 18.6105 91.7100 2 47 14 45
1988319N08090 1988 106 NI BB NOT_NAMED 1988-11-18 09:00:00 NR 19.1520 92.2890 main 118 44 P_________P___ IO031988 19.1773 92.2832 52 0 19.1267 92.2948 2 51 16 49
1988319N08090 1988 106 NI BB NOT_NAMED 1988-11-18 12:00:00 NR 19.7000 93.0000 main 44 0 O_________O___ jtwc_io IO031988 19.7000 93.0000 55 0 19.7000 93.0000 2 55 19 51
1988319N08090 1988 106 NI BB NOT_NAMED 1988-11-18 15:00:00 NR 20.3275 93.8189 main 0 0 P_________P___ IO031988 20.3209 93.8206 40 0 20.3341 93.8173 2 40 21 51
1988319N08090 1988 106 NI BB NOT_NAMED 1988-11-18 18:00:00 NR 21.0000 94.7000 main 0 O_________O___ jtwc_io IO031988 21.0000 94.7000 25 -1 21.0000 94.7000 1 25 21 51

IBTrACS Databaseについて

本データベースは、米国NOAAが公開する1842年以降の世界の熱帯低気圧のベストトラックデータアーカイブInternational Best Track Archive for Climate Stewardship (IBTrACS)を、ウェブで閲覧しやすい形式に変換したものです。

最終更新日:2021-12-03